createdAt,value
2018-12-25T00:00:38.930Z,1028.96
2018-12-25T00:01:38.731Z,1029.00
2018-12-25T00:02:38.666Z,1028.96
2018-12-25T00:03:38.656Z,1028.94
2018-12-25T00:04:38.645Z,1028.96
2018-12-25T00:05:38.636Z,1028.96
2018-12-25T00:06:38.676Z,1028.94
2018-12-25T00:07:38.625Z,1028.94
2018-12-25T00:08:38.614Z,1028.94
2018-12-25T00:09:38.602Z,1028.92
2018-12-25T00:10:38.855Z,1028.90
2018-12-25T00:11:38.589Z,1028.89
2018-12-25T00:12:38.559Z,1028.89
2018-12-25T00:13:38.797Z,1028.86
2018-12-25T00:14:38.539Z,1028.95
2018-12-25T00:15:38.535Z,1028.99
2018-12-25T00:16:38.564Z,1029.04
2018-12-25T00:17:38.517Z,1029.05
2018-12-25T00:18:38.499Z,1029.01
2018-12-25T00:19:38.488Z,1029.04
2018-12-25T00:20:38.844Z,1029.07
2018-12-25T00:21:38.473Z,1029.09
2018-12-25T00:22:38.459Z,1029.11
2018-12-25T00:23:38.440Z,1029.10
2018-12-25T00:24:38.447Z,1029.11
2018-12-25T00:25:38.798Z,1029.14
2018-12-25T00:26:38.421Z,1029.12
2018-12-25T00:27:38.398Z,1029.06
2018-12-25T00:28:38.429Z,1029.02
2018-12-25T00:29:38.380Z,1028.98
2018-12-25T00:30:38.613Z,1029.02
2018-12-25T00:31:38.361Z,1029.02
2018-12-25T00:32:38.345Z,1029.05
2018-12-25T00:33:38.339Z,1029.05
2018-12-25T00:34:38.378Z,1029.10
2018-12-25T00:35:38.304Z,1029.08
2018-12-25T00:36:38.315Z,1029.04
2018-12-25T00:37:38.787Z,1029.04
2018-12-25T00:38:38.286Z,1029.04
2018-12-25T00:39:38.268Z,1029.05
2018-12-25T00:40:38.254Z,1029.05
2018-12-25T00:41:38.258Z,1029.08
2018-12-25T00:42:39.012Z,1029.08
2018-12-25T00:43:38.543Z,1029.05
2018-12-25T00:44:38.463Z,1029.16
2018-12-25T00:45:38.197Z,1029.16
2018-12-25T00:46:38.207Z,1029.16
2018-12-25T00:47:38.177Z,1029.15
2018-12-25T00:48:38.178Z,1029.13
2018-12-25T00:49:38.259Z,1029.13
2018-12-25T00:50:38.416Z,1029.17
2018-12-25T00:51:38.420Z,1029.19
2018-12-25T00:52:38.129Z,1029.19
2018-12-25T00:53:38.114Z,1029.17
2018-12-25T00:54:38.100Z,1029.21
2018-12-25T00:55:38.084Z,1029.14
2018-12-25T00:56:38.094Z,1029.13
2018-12-25T00:57:38.069Z,1029.13
2018-12-25T00:58:38.099Z,1029.12
2018-12-25T00:59:38.043Z,1029.07
2018-12-25T01:00:39.360Z,1029.07
2018-12-25T01:01:38.035Z,1029.08
2018-12-25T01:02:38.032Z,1029.06
2018-12-25T01:03:38.001Z,1029.01
2018-12-25T01:04:37.987Z,1028.99
2018-12-25T01:05:38.068Z,1028.88
2018-12-25T01:06:37.996Z,1028.84
2018-12-25T01:07:38.216Z,1028.84
2018-12-25T01:08:37.961Z,1028.91
2018-12-25T01:09:37.940Z,1028.90
2018-12-25T01:10:37.922Z,1028.88
2018-12-25T01:11:37.925Z,1028.89
2018-12-25T01:12:37.919Z,1028.90
2018-12-25T01:13:38.149Z,1028.94
2018-12-25T01:14:38.141Z,1028.96
2018-12-25T01:15:38.134Z,1028.93
2018-12-25T01:16:37.877Z,1028.90
2018-12-25T01:17:37.898Z,1028.93
2018-12-25T01:18:37.848Z,1028.96
2018-12-25T01:19:37.862Z,1028.93
2018-12-25T01:20:37.811Z,1028.91
2018-12-25T01:21:37.802Z,1028.90
2018-12-25T01:22:37.798Z,1028.89
2018-12-25T01:23:37.807Z,1028.91
2018-12-25T01:24:37.771Z,1028.91
2018-12-25T01:25:37.777Z,1028.90
2018-12-25T01:26:37.747Z,1028.98
2018-12-25T01:27:38.005Z,1029.02
2018-12-25T01:28:37.724Z,1029.00
2018-12-25T01:29:37.717Z,1029.03
2018-12-25T01:30:37.709Z,1029.07
2018-12-25T01:31:37.699Z,1029.07
2018-12-25T01:32:37.948Z,1029.09
2018-12-25T01:33:38.053Z,1029.08
2018-12-25T01:34:37.662Z,1029.07
2018-12-25T01:35:37.953Z,1029.03
2018-12-25T01:36:37.639Z,1029.00
2018-12-25T01:37:37.653Z,1029.02
2018-12-25T01:38:37.872Z,1029.01
2018-12-25T01:39:37.615Z,1029.02
2018-12-25T01:40:37.861Z,1029.05
2018-12-25T01:41:37.596Z,1029.08
2018-12-25T01:42:37.622Z,1029.08
2018-12-25T01:43:37.637Z,1029.05
2018-12-25T01:44:37.555Z,1029.04
2018-12-25T01:45:37.563Z,1029.04
2018-12-25T01:46:37.529Z,1029.03
2018-12-25T01:47:37.573Z,1029.08
2018-12-25T01:48:37.512Z,1029.07
2018-12-25T01:49:37.501Z,1029.07
2018-12-25T01:50:37.493Z,1029.10
2018-12-25T01:51:37.489Z,1029.14
2018-12-25T01:52:37.497Z,1029.17
2018-12-25T01:53:37.459Z,1029.23
2018-12-25T01:54:37.450Z,1029.21
2018-12-25T01:55:37.432Z,1029.21
2018-12-25T01:56:37.430Z,1029.20
2018-12-25T01:57:37.464Z,1029.21
2018-12-25T01:58:37.399Z,1029.23
2018-12-25T01:59:37.461Z,1029.24
2018-12-25T02:00:37.380Z,1029.18
2018-12-25T02:01:37.363Z,1029.20
2018-12-25T02:02:37.377Z,1029.22
2018-12-25T02:03:37.370Z,1029.19
2018-12-25T02:04:37.346Z,1029.15
2018-12-25T02:05:37.321Z,1029.15
2018-12-25T02:06:37.317Z,1029.19
2018-12-25T02:07:37.315Z,1029.25
2018-12-25T02:08:37.293Z,1029.25
2018-12-25T02:09:37.540Z,1029.23
2018-12-25T02:10:37.278Z,1029.21
2018-12-25T02:11:37.255Z,1029.22
2018-12-25T02:12:37.262Z,1029.23
2018-12-25T02:13:37.240Z,1029.24
2018-12-25T02:14:37.487Z,1029.26
2018-12-25T02:15:37.471Z,1029.25
2018-12-25T02:16:37.206Z,1029.22
2018-12-25T02:17:37.715Z,1029.22
2018-12-25T02:18:37.184Z,1029.21
2018-12-25T02:19:40.280Z,1029.20
2018-12-25T02:20:37.421Z,1029.24
2018-12-25T02:21:37.167Z,1029.23
2018-12-25T02:22:37.154Z,1029.23
2018-12-25T02:23:37.145Z,1029.21
2018-12-25T02:24:37.175Z,1029.24
2018-12-25T02:25:37.163Z,1029.22
2018-12-25T02:26:37.095Z,1029.25
2018-12-25T02:27:37.360Z,1029.26
2018-12-25T02:28:37.081Z,1029.26
2018-12-25T02:29:37.062Z,1029.26
2018-12-25T02:30:37.069Z,1029.31
2018-12-25T02:31:37.039Z,1029.24
2018-12-25T02:32:37.043Z,1029.20
2018-12-25T02:33:37.040Z,1029.22
2018-12-25T02:34:37.264Z,1029.17
2018-12-25T02:35:37.001Z,1029.16
2018-12-25T02:36:36.985Z,1029.20
2018-12-25T02:37:36.995Z,1029.17
2018-12-25T02:38:36.980Z,1029.17
2018-12-25T02:39:37.215Z,1029.21
2018-12-25T02:40:37.206Z,1029.18
2018-12-25T02:41:36.937Z,1029.21
2018-12-25T02:42:36.980Z,1029.19
2018-12-25T02:43:36.972Z,1029.23
2018-12-25T02:44:37.152Z,1029.19
2018-12-25T02:45:36.900Z,1029.13
2018-12-25T02:46:36.902Z,1029.19
2018-12-25T02:47:36.881Z,1029.18
2018-12-25T02:48:36.873Z,1029.16
2018-12-25T02:49:36.847Z,1029.20
2018-12-25T02:50:36.849Z,1029.20
2018-12-25T02:51:37.337Z,1029.20
2018-12-25T02:52:36.831Z,1029.17
2018-12-25T02:53:36.818Z,1029.21
2018-12-25T02:54:36.789Z,1029.23
2018-12-25T02:55:37.036Z,1029.21
2018-12-25T02:56:36.783Z,1029.19
2018-12-25T02:57:36.775Z,1029.16
2018-12-25T02:58:36.751Z,1029.14
2018-12-25T02:59:36.737Z,1029.09
2018-12-25T03:00:37.024Z,1029.12
2018-12-25T03:01:36.715Z,1029.11
2018-12-25T03:02:36.726Z,1029.07
2018-12-25T03:03:36.818Z,1029.04
2018-12-25T03:04:37.006Z,1029.03
2018-12-25T03:05:36.675Z,1028.98
2018-12-25T03:06:36.665Z,1029.02
2018-12-25T03:07:36.924Z,1029.01
2018-12-25T03:08:37.161Z,1029.04
2018-12-25T03:09:36.693Z,1029.05
2018-12-25T03:10:36.634Z,1029.02
2018-12-25T03:11:36.615Z,1029.04
2018-12-25T03:12:36.853Z,1029.04
2018-12-25T03:13:36.594Z,1029.04
2018-12-25T03:14:36.584Z,1029.02
2018-12-25T03:15:36.569Z,1029.03
2018-12-25T03:16:36.567Z,1029.00
2018-12-25T03:17:36.540Z,1029.01
2018-12-25T03:18:36.561Z,1029.04
2018-12-25T03:19:36.524Z,1029.00
2018-12-25T03:20:36.510Z,1029.03
2018-12-25T03:21:36.506Z,1028.99
2018-12-25T03:22:36.493Z,1028.97
2018-12-25T03:23:36.497Z,1028.95
2018-12-25T03:24:36.466Z,1028.95
2018-12-25T03:25:36.462Z,1028.95
2018-12-25T03:26:36.450Z,1028.97
2018-12-25T03:27:36.697Z,1029.00
2018-12-25T03:28:36.449Z,1028.99
2018-12-25T03:29:36.674Z,1028.99
2018-12-25T03:30:36.404Z,1028.98
2018-12-25T03:31:36.404Z,1028.96
2018-12-25T03:32:36.650Z,1028.91
2018-12-25T03:33:36.381Z,1028.94
2018-12-25T03:34:36.358Z,1028.85
2018-12-25T03:35:36.378Z,1028.86
2018-12-25T03:36:36.336Z,1028.87
2018-12-25T03:37:36.584Z,1028.86
2018-12-25T03:38:36.338Z,1028.80
2018-12-25T03:39:36.315Z,1028.87
2018-12-25T03:40:36.299Z,1028.81
2018-12-25T03:41:36.282Z,1028.82
2018-12-25T03:42:36.369Z,1028.85
2018-12-25T03:43:36.323Z,1028.88
2018-12-25T03:44:36.255Z,1028.87
2018-12-25T03:45:36.492Z,1028.87
2018-12-25T03:46:36.228Z,1028.84
2018-12-25T03:47:36.213Z,1028.85
2018-12-25T03:48:36.218Z,1028.86
2018-12-25T03:49:36.449Z,1028.86
2018-12-25T03:50:36.195Z,1028.85
2018-12-25T03:51:36.168Z,1028.89
2018-12-25T03:52:36.419Z,1028.81
2018-12-25T03:53:36.161Z,1028.83
2018-12-25T03:54:36.139Z,1028.83
2018-12-25T03:55:36.126Z,1028.85
2018-12-25T03:56:36.122Z,1028.79
2018-12-25T03:57:36.108Z,1028.76
2018-12-25T03:58:36.367Z,1028.76
2018-12-25T03:59:36.088Z,1028.74
2018-12-25T04:00:36.094Z,1028.79
2018-12-25T04:01:36.067Z,1028.75
2018-12-25T04:02:36.057Z,1028.74
2018-12-25T04:03:36.059Z,1028.73
2018-12-25T04:04:36.033Z,1028.77
2018-12-25T04:05:36.070Z,1028.78
2018-12-25T04:06:36.008Z,1028.72
2018-12-25T04:07:36.014Z,1028.74
2018-12-25T04:08:36.004Z,1028.73
2018-12-25T04:09:36.039Z,1028.78
2018-12-25T04:10:35.962Z,1028.74
2018-12-25T04:11:36.132Z,1028.74
2018-12-25T04:12:35.946Z,1028.77
2018-12-25T04:13:35.952Z,1028.76
2018-12-25T04:14:35.928Z,1028.73
2018-12-25T04:15:35.945Z,1028.69
2018-12-25T04:16:35.901Z,1028.65
2018-12-25T04:17:36.033Z,1028.66
2018-12-25T04:18:35.940Z,1028.65
2018-12-25T04:19:35.915Z,1028.64
2018-12-25T04:20:44.093Z,1028.72
2018-12-25T04:21:35.951Z,1028.68
2018-12-25T04:22:36.098Z,1028.66
2018-12-25T04:23:35.845Z,1028.65
2018-12-25T04:24:35.817Z,1028.65
2018-12-25T04:25:35.799Z,1028.59
2018-12-25T04:26:35.793Z,1028.61
2018-12-25T04:27:35.777Z,1028.67
2018-12-25T04:28:35.766Z,1028.67
2018-12-25T04:29:35.762Z,1028.67
2018-12-25T04:30:35.748Z,1028.71
2018-12-25T04:31:35.738Z,1028.66
2018-12-25T04:32:35.725Z,1028.64
2018-12-25T04:33:35.990Z,1028.70
2018-12-25T04:34:35.721Z,1028.66
2018-12-25T04:35:35.695Z,1028.66
2018-12-25T04:36:35.685Z,1028.67
2018-12-25T04:37:35.932Z,1028.73
2018-12-25T04:38:35.659Z,1028.74
2018-12-25T04:39:35.671Z,1028.74
2018-12-25T04:40:36.144Z,1028.71
2018-12-25T04:41:35.627Z,1028.68
2018-12-25T04:42:35.669Z,1028.64
2018-12-25T04:43:35.603Z,1028.63
2018-12-25T04:44:35.615Z,1028.60
2018-12-25T04:45:35.598Z,1028.53
2018-12-25T04:46:35.573Z,1028.55
2018-12-25T04:47:35.596Z,1028.51
2018-12-25T04:48:35.813Z,1028.48
2018-12-25T04:49:35.619Z,1028.51
2018-12-25T04:50:35.538Z,1028.52
2018-12-25T04:51:35.573Z,1028.51
2018-12-25T04:52:35.508Z,1028.54
2018-12-25T04:53:35.500Z,1028.52
2018-12-25T04:54:35.498Z,1028.54
2018-12-25T04:55:35.487Z,1028.54
2018-12-25T04:56:35.467Z,1028.55
2018-12-25T04:57:35.467Z,1028.58
2018-12-25T04:58:35.485Z,1028.50
2018-12-25T04:59:35.525Z,1028.56
2018-12-25T05:00:35.431Z,1028.58
2018-12-25T05:01:35.417Z,1028.54
2018-12-25T05:02:35.404Z,1028.57
2018-12-25T05:03:35.392Z,1028.61
2018-12-25T05:04:35.390Z,1028.57
2018-12-25T05:05:35.366Z,1028.58
2018-12-25T05:06:35.363Z,1028.56
2018-12-25T05:07:35.351Z,1028.60
2018-12-25T05:08:35.363Z,1028.64
2018-12-25T05:09:35.342Z,1028.62
2018-12-25T05:10:35.325Z,1028.66
2018-12-25T05:11:35.361Z,1028.61
2018-12-25T05:12:35.291Z,1028.58
2018-12-25T05:13:35.291Z,1028.53
2018-12-25T05:14:35.282Z,1028.63
2018-12-25T05:15:35.256Z,1028.67
2018-12-25T05:16:35.245Z,1028.64
2018-12-25T05:17:35.245Z,1028.66
2018-12-25T05:18:35.224Z,1028.66
2018-12-25T05:19:35.227Z,1028.65
2018-12-25T05:20:37.960Z,1028.64
2018-12-25T05:21:35.202Z,1028.68
2018-12-25T05:22:35.187Z,1028.64
2018-12-25T05:23:35.173Z,1028.66
2018-12-25T05:24:35.439Z,1028.66
2018-12-25T05:25:35.149Z,1028.67
2018-12-25T05:26:35.139Z,1028.62
2018-12-25T05:27:35.125Z,1028.58
2018-12-25T05:28:35.144Z,1028.55
2018-12-25T05:29:35.121Z,1028.59
2018-12-25T05:30:35.158Z,1028.57
2018-12-25T05:31:35.083Z,1028.60
2018-12-25T05:32:35.077Z,1028.57
2018-12-25T05:33:35.068Z,1028.55
2018-12-25T05:34:35.334Z,1028.58
2018-12-25T05:35:35.041Z,1028.58
2018-12-25T05:36:35.026Z,1028.57
2018-12-25T05:37:35.047Z,1028.53
2018-12-25T05:38:35.023Z,1028.56
2018-12-25T05:39:35.010Z,1028.56
2018-12-25T05:40:35.248Z,1028.54
2018-12-25T05:41:34.971Z,1028.52
2018-12-25T05:42:34.962Z,1028.49
2018-12-25T05:43:34.952Z,1028.50
2018-12-25T05:44:34.949Z,1028.51
2018-12-25T05:45:34.928Z,1028.49
2018-12-25T05:46:35.173Z,1028.50
2018-12-25T05:47:34.928Z,1028.47
2018-12-25T05:48:35.166Z,1028.48
2018-12-25T05:49:34.906Z,1028.48
2018-12-25T05:50:34.962Z,1028.45
2018-12-25T05:51:34.876Z,1028.46
2018-12-25T05:52:35.109Z,1028.46
2018-12-25T05:53:34.843Z,1028.42
2018-12-25T05:54:34.848Z,1028.38
2018-12-25T05:55:34.827Z,1028.39
2018-12-25T05:56:34.815Z,1028.41
2018-12-25T05:57:34.818Z,1028.48
2018-12-25T05:58:34.797Z,1028.49
2018-12-25T05:59:34.803Z,1028.48
2018-12-25T06:00:34.766Z,1028.50
2018-12-25T06:01:34.761Z,1028.48
2018-12-25T06:02:34.742Z,1028.50
2018-12-25T06:03:34.731Z,1028.57
2018-12-25T06:04:34.737Z,1028.55
2018-12-25T06:05:34.716Z,1028.53
2018-12-25T06:06:34.704Z,1028.58
2018-12-25T06:07:34.695Z,1028.63
2018-12-25T06:08:34.932Z,1028.65
2018-12-25T06:09:34.671Z,1028.62
2018-12-25T06:10:34.671Z,1028.65
2018-12-25T06:11:34.667Z,1028.67
2018-12-25T06:12:34.634Z,1028.66
2018-12-25T06:13:34.640Z,1028.66
2018-12-25T06:14:34.644Z,1028.67
2018-12-25T06:15:34.617Z,1028.64
2018-12-25T06:16:34.610Z,1028.68
2018-12-25T06:17:34.584Z,1028.67
2018-12-25T06:18:34.575Z,1028.69
2018-12-25T06:19:34.557Z,1028.66
2018-12-25T06:20:34.565Z,1028.67
2018-12-25T06:21:34.535Z,1028.67
2018-12-25T06:22:34.546Z,1028.70
2018-12-25T06:23:34.518Z,1028.69
2018-12-25T06:24:34.524Z,1028.71
2018-12-25T06:25:34.526Z,1028.71
2018-12-25T06:26:34.510Z,1028.64
2018-12-25T06:27:34.476Z,1028.66
2018-12-25T06:28:34.476Z,1028.62
2018-12-25T06:29:34.703Z,1028.63
2018-12-25T06:30:34.704Z,1028.61
2018-12-25T06:31:34.443Z,1028.68
2018-12-25T06:32:34.415Z,1028.69
2018-12-25T06:33:34.744Z,1028.67
2018-12-25T06:34:34.394Z,1028.65
2018-12-25T06:35:34.417Z,1028.65
2018-12-25T06:36:34.377Z,1028.64
2018-12-25T06:37:34.615Z,1028.68
2018-12-25T06:38:34.356Z,1028.69
2018-12-25T06:39:34.345Z,1028.69
2018-12-25T06:40:34.352Z,1028.68
2018-12-25T06:41:34.575Z,1028.66
2018-12-25T06:42:34.320Z,1028.62
2018-12-25T06:43:34.298Z,1028.61
2018-12-25T06:44:34.293Z,1028.63
2018-12-25T06:45:34.290Z,1028.65
2018-12-25T06:46:34.530Z,1028.63
2018-12-25T06:47:34.254Z,1028.62
2018-12-25T06:48:34.547Z,1028.60
2018-12-25T06:49:34.253Z,1028.60
2018-12-25T06:50:34.292Z,1028.61
2018-12-25T06:51:34.218Z,1028.60
2018-12-25T06:52:34.208Z,1028.57
2018-12-25T06:53:34.189Z,1028.55
2018-12-25T06:54:34.183Z,1028.57
2018-12-25T06:55:34.255Z,1028.56
2018-12-25T06:56:34.160Z,1028.57
2018-12-25T06:57:34.145Z,1028.56
2018-12-25T06:58:34.132Z,1028.55
2018-12-25T06:59:34.145Z,1028.50
2018-12-25T07:00:34.396Z,1028.46
2018-12-25T07:01:34.120Z,1028.54
2018-12-25T07:02:34.088Z,1028.56
2018-12-25T07:03:34.183Z,1028.55
2018-12-25T07:04:34.082Z,1028.54
2018-12-25T07:05:34.071Z,1028.57
2018-12-25T07:06:34.066Z,1028.59
2018-12-25T07:07:34.039Z,1028.65
2018-12-25T07:08:34.026Z,1028.59
2018-12-25T07:09:34.023Z,1028.58
2018-12-25T07:10:34.285Z,1028.58
2018-12-25T07:11:33.995Z,1028.52
2018-12-25T07:12:33.982Z,1028.59
2018-12-25T07:13:33.996Z,1028.62
2018-12-25T07:14:33.973Z,1028.60
2018-12-25T07:15:33.969Z,1028.58
2018-12-25T07:16:33.992Z,1028.61
2018-12-25T07:17:34.068Z,1028.62
2018-12-25T07:18:34.231Z,1028.63
2018-12-25T07:19:33.909Z,1028.59
2018-12-25T07:20:34.025Z,1028.55
2018-12-25T07:21:34.169Z,1028.52
2018-12-25T07:22:33.883Z,1028.56
2018-12-25T07:23:33.895Z,1028.56
2018-12-25T07:24:33.853Z,1028.57
2018-12-25T07:25:33.905Z,1028.57
2018-12-25T07:26:33.838Z,1028.56
2018-12-25T07:27:33.824Z,1028.58
2018-12-25T07:28:33.808Z,1028.61
2018-12-25T07:29:33.799Z,1028.56
2018-12-25T07:30:33.783Z,1028.58
2018-12-25T07:31:33.797Z,1028.58
2018-12-25T07:32:34.013Z,1028.59
2018-12-25T07:33:33.747Z,1028.59
2018-12-25T07:34:34.002Z,1028.62
2018-12-25T07:35:33.733Z,1028.58
2018-12-25T07:36:37.413Z,1028.55
2018-12-25T07:37:33.711Z,1028.48
2018-12-25T07:38:33.695Z,1028.56
2018-12-25T07:39:33.683Z,1028.51
2018-12-25T07:40:33.678Z,1028.49
2018-12-25T07:41:33.677Z,1028.48
2018-12-25T07:42:33.654Z,1028.47
2018-12-25T07:43:33.641Z,1028.47
2018-12-25T07:44:33.880Z,1028.44
2018-12-25T07:45:33.615Z,1028.40
2018-12-25T07:46:33.621Z,1028.42
2018-12-25T07:47:33.598Z,1028.40
2018-12-25T07:48:33.609Z,1028.37
2018-12-25T07:49:33.901Z,1028.37
2018-12-25T07:50:33.562Z,1028.32
2018-12-25T07:51:33.591Z,1028.32
2018-12-25T07:52:33.546Z,1028.37
2018-12-25T07:53:33.534Z,1028.38
2018-12-25T07:54:33.527Z,1028.36
2018-12-25T07:55:33.514Z,1028.34
2018-12-25T07:56:33.511Z,1028.33
2018-12-25T07:57:33.509Z,1028.34
2018-12-25T07:58:33.476Z,1028.37
2018-12-25T07:59:33.464Z,1028.37
2018-12-25T08:00:33.481Z,1028.37
2018-12-25T08:01:33.463Z,1028.36
2018-12-25T08:02:33.440Z,1028.37
2018-12-25T08:03:33.429Z,1028.37
2018-12-25T08:04:33.414Z,1028.38
2018-12-25T08:05:33.410Z,1028.40
2018-12-25T08:06:33.403Z,1028.38
2018-12-25T08:07:33.642Z,1028.39
2018-12-25T08:08:33.373Z,1028.42
2018-12-25T08:09:33.365Z,1028.47
2018-12-25T08:10:33.354Z,1028.47
2018-12-25T08:11:33.352Z,1028.52
2018-12-25T08:12:33.600Z,1028.47
2018-12-25T08:13:33.323Z,1028.43
2018-12-25T08:14:33.302Z,1028.45
2018-12-25T08:15:33.296Z,1028.48
2018-12-25T08:16:36.305Z,1028.53
2018-12-25T08:17:33.271Z,1028.52
2018-12-25T08:18:33.283Z,1028.45
2018-12-25T08:19:33.539Z,1028.49
2018-12-25T08:20:33.261Z,1028.48
2018-12-25T08:21:35.586Z,1028.47
2018-12-25T08:22:33.222Z,1028.45
2018-12-25T08:23:33.208Z,1028.40
2018-12-25T08:24:33.189Z,1028.37
2018-12-25T08:25:33.197Z,1028.42
2018-12-25T08:26:33.188Z,1028.45
2018-12-25T08:27:33.176Z,1028.44
2018-12-25T08:28:33.155Z,1028.44
2018-12-25T08:29:33.142Z,1028.37
2018-12-25T08:30:33.126Z,1028.41
2018-12-25T08:31:33.145Z,1028.36
2018-12-25T08:32:33.128Z,1028.39
2018-12-25T08:33:33.138Z,1028.43
2018-12-25T08:34:33.093Z,1028.46
2018-12-25T08:35:33.078Z,1028.49
2018-12-25T08:36:33.093Z,1028.48
2018-12-25T08:37:33.058Z,1028.48
2018-12-25T08:38:33.049Z,1028.49
2018-12-25T08:39:33.040Z,1028.49
2018-12-25T08:40:33.032Z,1028.49
2018-12-25T08:41:33.030Z,1028.50
2018-12-25T08:42:33.138Z,1028.46
2018-12-25T08:43:33.269Z,1028.48
2018-12-25T08:44:32.982Z,1028.46
2018-12-25T08:45:32.972Z,1028.52
2018-12-25T08:46:32.974Z,1028.47
2018-12-25T08:47:33.205Z,1028.49
2018-12-25T08:48:32.937Z,1028.47
2018-12-25T08:49:32.919Z,1028.45
2018-12-25T08:50:32.915Z,1028.52
2018-12-25T08:51:37.629Z,1028.57
2018-12-25T08:52:32.930Z,1028.54
2018-12-25T08:53:32.880Z,1028.56
2018-12-25T08:54:32.876Z,1028.57
2018-12-25T08:55:32.863Z,1028.55
2018-12-25T08:56:32.848Z,1028.55
2018-12-25T08:57:32.894Z,1028.55
2018-12-25T08:58:32.827Z,1028.54
2018-12-25T08:59:33.063Z,1028.55
2018-12-25T09:00:32.800Z,1028.58
2018-12-25T09:01:32.791Z,1028.64
2018-12-25T09:02:32.798Z,1028.65
2018-12-25T09:03:32.776Z,1028.70
2018-12-25T09:04:32.762Z,1028.75
2018-12-25T09:05:32.808Z,1028.73
2018-12-25T09:06:32.741Z,1028.72
2018-12-25T09:07:32.740Z,1028.74
2018-12-25T09:08:34.997Z,1028.77
2018-12-25T09:09:32.710Z,1028.72
2018-12-25T09:10:32.694Z,1028.79
2018-12-25T09:11:32.686Z,1028.80
2018-12-25T09:12:32.701Z,1028.82
2018-12-25T09:13:32.669Z,1028.86
2018-12-25T09:14:32.667Z,1028.87
2018-12-25T09:15:32.639Z,1028.83
2018-12-25T09:16:32.623Z,1028.83
2018-12-25T09:17:32.636Z,1028.86
2018-12-25T09:18:32.866Z,1028.87
2018-12-25T09:19:32.595Z,1028.85
2018-12-25T09:20:32.846Z,1028.84
2018-12-25T09:21:32.651Z,1028.83
2018-12-25T09:22:32.589Z,1028.81
2018-12-25T09:23:32.558Z,1028.82
2018-12-25T09:24:32.626Z,1028.89
2018-12-25T09:25:32.525Z,1028.83
2018-12-25T09:26:32.520Z,1028.85
2018-12-25T09:27:32.525Z,1028.86
2018-12-25T09:28:32.510Z,1028.82
2018-12-25T09:29:32.481Z,1028.85
2018-12-25T09:30:32.478Z,1028.89
2018-12-25T09:31:32.721Z,1028.87
2018-12-25T09:32:32.474Z,1028.88
2018-12-25T09:33:32.462Z,1028.85
2018-12-25T09:34:32.431Z,1028.87
2018-12-25T09:35:32.747Z,1028.83
2018-12-25T09:36:32.408Z,1028.84
2018-12-25T09:37:32.415Z,1028.80
2018-12-25T09:38:32.394Z,1028.83
2018-12-25T09:39:32.424Z,1028.83
2018-12-25T09:40:32.364Z,1028.82
2018-12-25T09:41:32.362Z,1028.81
2018-12-25T09:42:39.668Z,1028.84
2018-12-25T09:43:32.365Z,1028.79
2018-12-25T09:44:32.327Z,1028.78
2018-12-25T09:45:33.152Z,1028.78
2018-12-25T09:46:32.316Z,1028.78
2018-12-25T09:47:32.308Z,1028.77
2018-12-25T09:48:32.279Z,1028.80
2018-12-25T09:49:32.321Z,1028.76
2018-12-25T09:50:32.254Z,1028.75
2018-12-25T09:51:32.284Z,1028.78
2018-12-25T09:52:32.248Z,1028.79
2018-12-25T09:53:32.236Z,1028.77
2018-12-25T09:54:32.241Z,1028.77
2018-12-25T09:55:32.459Z,1028.80
2018-12-25T09:56:32.440Z,1028.81
2018-12-25T09:57:32.194Z,1028.78
2018-12-25T09:58:32.184Z,1028.73
2018-12-25T09:59:32.161Z,1028.73
2018-12-25T10:00:32.162Z,1028.72
2018-12-25T10:01:32.150Z,1028.70
2018-12-25T10:02:32.143Z,1028.71
2018-12-25T10:03:32.126Z,1028.68
2018-12-25T10:04:32.114Z,1028.68
2018-12-25T10:05:32.091Z,1028.68
2018-12-25T10:06:32.096Z,1028.60
2018-12-25T10:07:32.147Z,1028.65
2018-12-25T10:08:32.070Z,1028.61
2018-12-25T10:09:32.048Z,1028.64
2018-12-25T10:10:32.038Z,1028.60
2018-12-25T10:11:32.284Z,1028.63
2018-12-25T10:12:32.032Z,1028.60
2018-12-25T10:13:32.009Z,1028.55
2018-12-25T10:14:32.045Z,1028.56
2018-12-25T10:15:31.997Z,1028.49
2018-12-25T10:16:31.978Z,1028.51
2018-12-25T10:17:31.984Z,1028.58
2018-12-25T10:18:31.967Z,1028.52
2018-12-25T10:19:32.754Z,1028.55
2018-12-25T10:20:31.937Z,1028.58
2018-12-25T10:21:32.166Z,1028.52
2018-12-25T10:22:31.922Z,1028.54
2018-12-25T10:23:31.908Z,1028.59
2018-12-25T10:24:31.884Z,1028.58
2018-12-25T10:25:31.916Z,1028.62
2018-12-25T10:26:31.976Z,1028.56
2018-12-25T10:27:31.863Z,1028.58
2018-12-25T10:28:31.901Z,1028.60
2018-12-25T10:29:31.831Z,1028.60
2018-12-25T10:30:32.077Z,1028.61
2018-12-25T10:31:31.866Z,1028.62
2018-12-25T10:32:31.809Z,1028.62
2018-12-25T10:33:31.801Z,1028.58
2018-12-25T10:34:31.776Z,1028.61
2018-12-25T10:35:32.090Z,1028.58
2018-12-25T10:36:31.750Z,1028.58
2018-12-25T10:37:31.738Z,1028.54
2018-12-25T10:38:32.023Z,1028.51
2018-12-25T10:39:32.016Z,1028.52
2018-12-25T10:40:31.707Z,1028.52
2018-12-25T10:41:31.949Z,1028.49
2018-12-25T10:42:31.949Z,1028.45
2018-12-25T10:43:31.703Z,1028.46
2018-12-25T10:44:31.666Z,1028.45
2018-12-25T10:45:31.655Z,1028.44
2018-12-25T10:46:31.670Z,1028.45
2018-12-25T10:47:31.646Z,1028.43
2018-12-25T10:48:31.641Z,1028.47
2018-12-25T10:49:31.631Z,1028.45
2018-12-25T10:50:31.598Z,1028.49
2018-12-25T10:51:31.594Z,1028.49
2018-12-25T10:52:31.642Z,1028.47
2018-12-25T10:53:31.574Z,1028.51
2018-12-25T10:54:31.555Z,1028.52
2018-12-25T10:55:31.799Z,1028.51
2018-12-25T10:56:31.529Z,1028.51
2018-12-25T10:57:31.519Z,1028.57
2018-12-25T10:58:31.517Z,1028.54
2018-12-25T10:59:31.497Z,1028.55
2018-12-25T11:00:31.739Z,1028.60
2018-12-25T11:01:31.486Z,1028.57
2018-12-25T11:02:31.733Z,1028.62
2018-12-25T11:03:31.461Z,1028.59
2018-12-25T11:04:31.442Z,1028.59
2018-12-25T11:05:31.452Z,1028.56
2018-12-25T11:06:31.414Z,1028.55
2018-12-25T11:07:31.669Z,1028.57
2018-12-25T11:08:31.409Z,1028.57
2018-12-25T11:09:31.389Z,1028.55
2018-12-25T11:10:31.384Z,1028.52
2018-12-25T11:11:31.403Z,1028.53
2018-12-25T11:12:31.369Z,1028.54
2018-12-25T11:13:31.391Z,1028.52
2018-12-25T11:14:31.328Z,1028.51
2018-12-25T11:15:31.336Z,1028.47
2018-12-25T11:16:31.306Z,1028.48
2018-12-25T11:17:31.292Z,1028.49
2018-12-25T11:18:31.554Z,1028.44
2018-12-25T11:19:31.321Z,1028.45
2018-12-25T11:20:31.270Z,1028.43
2018-12-25T11:21:31.265Z,1028.41
2018-12-25T11:22:31.240Z,1028.43
2018-12-25T11:23:31.502Z,1028.39
2018-12-25T11:24:31.220Z,1028.41
2018-12-25T11:25:31.228Z,1028.41
2018-12-25T11:26:31.223Z,1028.39
2018-12-25T11:27:31.185Z,1028.45
2018-12-25T11:28:31.201Z,1028.45
2018-12-25T11:29:31.825Z,1028.51
2018-12-25T11:30:31.189Z,1028.48
2018-12-25T11:31:31.150Z,1028.38
2018-12-25T11:32:31.143Z,1028.43
2018-12-25T11:33:31.141Z,1028.39
2018-12-25T11:34:31.116Z,1028.39
2018-12-25T11:35:31.121Z,1028.34
2018-12-25T11:36:31.113Z,1028.32
2018-12-25T11:37:31.078Z,1028.31
2018-12-25T11:38:31.078Z,1028.28
2018-12-25T11:39:31.054Z,1028.23
2018-12-25T11:40:31.044Z,1028.26
2018-12-25T11:41:31.043Z,1028.23
2018-12-25T11:42:31.024Z,1028.25
2018-12-25T11:43:31.023Z,1028.24
2018-12-25T11:44:30.998Z,1028.21
2018-12-25T11:45:30.990Z,1028.13
2018-12-25T11:46:30.981Z,1028.06
2018-12-25T11:47:30.982Z,1028.07
2018-12-25T11:48:31.214Z,1028.04
2018-12-25T11:49:30.994Z,1028.05
2018-12-25T11:50:30.930Z,1028.04
2018-12-25T11:51:30.919Z,1028.02
2018-12-25T11:52:30.913Z,1028.03
2018-12-25T11:53:30.911Z,1028.04
2018-12-25T11:54:30.927Z,1028.03
2018-12-25T11:55:30.884Z,1028.02
2018-12-25T11:56:30.867Z,1028.05
2018-12-25T11:57:30.858Z,1028.05
2018-12-25T11:58:30.853Z,1028.03
2018-12-25T11:59:30.907Z,1028.00
2018-12-25T12:00:30.827Z,1027.99
2018-12-25T12:01:31.063Z,1028.01
2018-12-25T12:02:30.817Z,1028.01
2018-12-25T12:03:30.802Z,1028.01
2018-12-25T12:04:30.836Z,1028.00
2018-12-25T12:05:30.794Z,1027.99